sensor_id;sensor_type;location;lat;lon;timestamp;pressure;altitude;pressure_sealevel;temperature;humidity
39789;BME280;25478;42.626;23.320;2023-02-02T00:00:52;93111.88;;;3.29;53.84
39789;BME280;25478;42.626;23.320;2023-02-02T00:03:17;93111.41;;;3.27;53.81
39789;BME280;25478;42.626;23.320;2023-02-02T00:05:45;93112.16;;;3.27;54.48
39789;BME280;25478;42.626;23.320;2023-02-02T00:08:11;93107.28;;;3.26;54.43
39789;BME280;25478;42.626;23.320;2023-02-02T00:10:36;93109.47;;;3.24;54.92
39789;BME280;25478;42.626;23.320;2023-02-02T00:13:01;93109.91;;;3.26;54.71
39789;BME280;25478;42.626;23.320;2023-02-02T00:15:27;93103.84;;;3.22;54.97
39789;BME280;25478;42.626;23.320;2023-02-02T00:17:52;93108.63;;;3.20;55.21
39789;BME280;25478;42.626;23.320;2023-02-02T00:20:18;93106.31;;;3.18;55.21
39789;BME280;25478;42.626;23.320;2023-02-02T00:22:43;93111.44;;;3.15;55.92
39789;BME280;25478;42.626;23.320;2023-02-02T00:25:09;93103.19;;;3.13;55.31
39789;BME280;25478;42.626;23.320;2023-02-02T00:27:34;93101.22;;;3.09;56.10
39789;BME280;25478;42.626;23.320;2023-02-02T00:30:01;93099.72;;;3.08;55.65
39789;BME280;25478;42.626;23.320;2023-02-02T00:32:26;93102.66;;;3.07;55.86
39789;BME280;25478;42.626;23.320;2023-02-02T00:34:52;93099.28;;;3.06;56.54
39789;BME280;25478;42.626;23.320;2023-02-02T00:37:17;93115.84;;;3.02;56.70
39789;BME280;25478;42.626;23.320;2023-02-02T00:39:43;93102.75;;;2.98;57.35
39789;BME280;25478;42.626;23.320;2023-02-02T00:42:10;93101.78;;;3.03;57.91
39789;BME280;25478;42.626;23.320;2023-02-02T00:44:35;93092.66;;;2.85;58.03
39789;BME280;25478;42.626;23.320;2023-02-02T00:47:19;93120.19;;;2.98;58.28
39789;BME280;25478;42.626;23.320;2023-02-02T00:49:45;93104.38;;;2.78;58.89
39789;BME280;25478;42.626;23.320;2023-02-02T00:52:10;93119.22;;;2.90;59.20
39789;BME280;25478;42.626;23.320;2023-02-02T00:54:36;93107.97;;;2.86;59.55
39789;BME280;25478;42.626;23.320;2023-02-02T00:57:02;93106.31;;;2.81;60.20
39789;BME280;25478;42.626;23.320;2023-02-02T00:59:27;93109.34;;;2.83;60.26
39789;BME280;25478;42.626;23.320;2023-02-02T01:01:52;93110.09;;;2.84;59.98
39789;BME280;25478;42.626;23.320;2023-02-02T01:04:18;93101.03;;;2.90;60.34
39789;BME280;25478;42.626;23.320;2023-02-02T01:06:45;93097.22;;;2.88;60.02
39789;BME280;25478;42.626;23.320;2023-02-02T01:09:11;93101.22;;;2.85;60.26
39789;BME280;25478;42.626;23.320;2023-02-02T01:11:37;93094.84;;;2.82;60.36
39789;BME280;25478;42.626;23.320;2023-02-02T01:14:02;93094.09;;;2.82;60.35
39789;BME280;25478;42.626;23.320;2023-02-02T01:16:28;93073.59;;;2.68;60.43
39789;BME280;25478;42.626;23.320;2023-02-02T01:18:54;93085.31;;;2.74;60.74
39789;BME280;25478;42.626;23.320;2023-02-02T01:21:20;93076.75;;;2.74;60.66
39789;BME280;25478;42.626;23.320;2023-02-02T01:23:45;93069.38;;;2.64;60.49
39789;BME280;25478;42.626;23.320;2023-02-02T01:26:12;93082.47;;;2.67;60.54
39789;BME280;25478;42.626;23.320;2023-02-02T01:28:38;93080.97;;;2.66;60.50
39789;BME280;25478;42.626;23.320;2023-02-02T01:31:09;93088.66;;;2.63;60.77
39789;BME280;25478;42.626;23.320;2023-02-02T01:33:36;93071.19;;;2.51;60.98
39789;BME280;25478;42.626;23.320;2023-02-02T01:36:08;93079.78;;;2.64;60.48
39789;BME280;25478;42.626;23.320;2023-02-02T01:38:34;93071.56;;;2.62;60.62
39789;BME280;25478;42.626;23.320;2023-02-02T01:41:00;93074.34;;;2.57;60.58
39789;BME280;25478;42.626;23.320;2023-02-02T01:43:49;93053.94;;;2.34;60.68
39789;BME280;25478;42.626;23.320;2023-02-02T01:46:28;93076.19;;;2.44;60.99
39789;BME280;25478;42.626;23.320;2023-02-02T01:49:11;93074.53;;;2.39;61.35
39789;BME280;25478;42.626;23.320;2023-02-02T01:51:46;93067.59;;;2.31;61.64
39789;BME280;25478;42.626;23.320;2023-02-02T01:54:21;93056.00;;;2.29;61.77
39789;BME280;25478;42.626;23.320;2023-02-02T01:56:55;93060.22;;;2.21;61.84
39789;BME280;25478;42.626;23.320;2023-02-02T01:59:21;93052.69;;;2.07;61.95
39789;BME280;25478;42.626;23.320;2023-02-02T02:01:48;93039.19;;;2.14;61.84
39789;BME280;25478;42.626;23.320;2023-02-02T02:04:15;93055.09;;;2.12;61.84
39789;BME280;25478;42.626;23.320;2023-02-02T02:06:43;93042.00;;;2.09;61.71
39789;BME280;25478;42.626;23.320;2023-02-02T02:09:09;93049.16;;;2.12;61.58
39789;BME280;25478;42.626;23.320;2023-02-02T02:11:35;93030.31;;;2.15;61.14
39789;BME280;25478;42.626;23.320;2023-02-02T02:14:04;93034.09;;;2.17;59.99
39789;BME280;25478;42.626;23.320;2023-02-02T02:32:03;93053.88;;;1.97;60.77
39789;BME280;25478;42.626;23.320;2023-02-02T02:37:17;93046.41;;;1.96;60.39
39789;BME280;25478;42.626;23.320;2023-02-02T02:42:40;93057.66;;;2.00;59.15
39789;BME280;25478;42.626;23.320;2023-02-02T02:45:08;93053.53;;;1.99;58.82
39789;BME280;25478;42.626;23.320;2023-02-02T02:47:36;93058.63;;;1.95;58.32
39789;BME280;25478;42.626;23.320;2023-02-02T02:50:03;93045.56;;;2.04;56.84
39789;BME280;25478;42.626;23.320;2023-02-02T02:52:30;93039.59;;;2.04;56.71
39789;BME280;25478;42.626;23.320;2023-02-02T02:54:57;93042.97;;;2.04;56.28
39789;BME280;25478;42.626;23.320;2023-02-02T03:01:03;93050.25;;;2.11;54.50
39789;BME280;25478;42.626;23.320;2023-02-02T03:03:22;93054.03;;;2.13;54.65
39789;BME280;25478;42.626;23.320;2023-02-02T03:06:22;93034.56;;;2.19;53.27
39789;BME280;25478;42.626;23.320;2023-02-02T03:11:21;93044.41;;;2.26;53.25
39789;BME280;25478;42.626;23.320;2023-02-02T03:13:47;93035.34;;;2.32;52.88
39789;BME280;25478;42.626;23.320;2023-02-02T03:16:14;93032.72;;;2.32;53.57
39789;BME280;25478;42.626;23.320;2023-02-02T03:18:41;93037.94;;;2.32;53.84
39789;BME280;25478;42.626;23.320;2023-02-02T03:21:09;93035.66;;;2.31;54.51
39789;BME280;25478;42.626;23.320;2023-02-02T03:23:35;93034.91;;;2.30;54.83
39789;BME280;25478;42.626;23.320;2023-02-02T03:26:00;93030.66;;;2.25;55.31
39789;BME280;25478;42.626;23.320;2023-02-02T03:28:26;93031.31;;;2.22;55.77
39789;BME280;25478;42.626;23.320;2023-02-02T03:30:52;93035.09;;;2.25;56.34
39789;BME280;25478;42.626;23.320;2023-02-02T03:33:19;93030.44;;;2.18;56.72
39789;BME280;25478;42.626;23.320;2023-02-02T03:35:45;93020.03;;;2.06;56.66
39789;BME280;25478;42.626;23.320;2023-02-02T03:38:10;93031.41;;;2.14;56.91
39789;BME280;25478;42.626;23.320;2023-02-02T03:40:37;93018.84;;;2.04;57.22
39789;BME280;25478;42.626;23.320;2023-02-02T03:43:03;93032.81;;;2.11;57.71
39789;BME280;25478;42.626;23.320;2023-02-02T03:45:29;93039.38;;;2.09;57.79
39789;BME280;25478;42.626;23.320;2023-02-02T03:47:56;93036.69;;;2.05;57.34
39789;BME280;25478;42.626;23.320;2023-02-02T03:50:22;93031.50;;;2.05;57.42
39789;BME280;25478;42.626;23.320;2023-02-02T03:52:49;93039.47;;;2.00;57.39
39789;BME280;25478;42.626;23.320;2023-02-02T03:55:15;93040.88;;;1.97;57.19
39789;BME280;25478;42.626;23.320;2023-02-02T03:57:40;93039.69;;;1.95;57.39
39789;BME280;25478;42.626;23.320;2023-02-02T04:00:07;93044.88;;;1.95;56.96
39789;BME280;25478;42.626;23.320;2023-02-02T04:02:38;93050.69;;;1.92;57.13
39789;BME280;25478;42.626;23.320;2023-02-02T04:05:05;93058.50;;;1.92;57.20
39789;BME280;25478;42.626;23.320;2023-02-02T04:07:31;93050.69;;;1.92;57.41
39789;BME280;25478;42.626;23.320;2023-02-02T04:09:57;93055.91;;;1.92;57.36
39789;BME280;25478;42.626;23.320;2023-02-02T04:12:22;93054.50;;;1.94;57.01
39789;BME280;25478;42.626;23.320;2023-02-02T04:14:48;93057.72;;;1.91;56.69
39789;BME280;25478;42.626;23.320;2023-02-02T04:17:13;93058.81;;;1.90;56.40
39789;BME280;25478;42.626;23.320;2023-02-02T04:19:38;93058.81;;;1.90;56.59
39789;BME280;25478;42.626;23.320;2023-02-02T04:22:04;93062.16;;;1.91;56.66
39789;BME280;25478;42.626;23.320;2023-02-02T04:24:29;93063.25;;;1.90;56.33
39789;BME280;25478;42.626;23.320;2023-02-02T04:26:55;93059.25;;;1.92;56.18
39789;BME280;25478;42.626;23.320;2023-02-02T04:29:21;93066.28;;;1.92;56.13
39789;BME280;25478;42.626;23.320;2023-02-02T04:31:46;93064.00;;;1.90;56.25
39789;BME280;25478;42.626;23.320;2023-02-02T04:34:11;93066.16;;;1.88;56.29
39789;BME280;25478;42.626;23.320;2023-02-02T04:36:37;93069.53;;;1.89;55.94
39789;BME280;25478;42.626;23.320;2023-02-02T04:39:04;93037.13;;;1.74;55.84
39789;BME280;25478;42.626;23.320;2023-02-02T04:41:29;93046.47;;;1.87;55.47
39789;BME280;25478;42.626;23.320;2023-02-02T04:43:55;93062.50;;;1.89;55.04
39789;BME280;25478;42.626;23.320;2023-02-02T04:46:20;93062.91;;;1.91;54.87
39789;BME280;25478;42.626;23.320;2023-02-02T04:48:47;93070.84;;;1.95;54.42
39789;BME280;25478;42.626;23.320;2023-02-02T04:51:14;93073.13;;;1.96;54.15
39789;BME280;25478;42.626;23.320;2023-02-02T04:53:41;93072.91;;;2.02;53.41
39789;BME280;25478;42.626;23.320;2023-02-02T04:56:11;93073.56;;;1.98;53.51
39789;BME280;25478;42.626;23.320;2023-02-02T04:58:37;93064.34;;;2.01;53.33
39789;BME280;25478;42.626;23.320;2023-02-02T05:01:14;93070.00;;;2.03;52.52
39789;BME280;25478;42.626;23.320;2023-02-02T05:03:40;93069.69;;;2.05;52.54
39789;BME280;25478;42.626;23.320;2023-02-02T05:06:06;93063.84;;;2.08;52.89
39789;BME280;25478;42.626;23.320;2023-02-02T05:08:31;93070.56;;;2.09;53.21
39789;BME280;25478;42.626;23.320;2023-02-02T05:10:57;93074.22;;;2.08;53.34
39789;BME280;25478;42.626;23.320;2023-02-02T05:13:22;93070.56;;;2.09;53.39
39789;BME280;25478;42.626;23.320;2023-02-02T05:15:48;93058.31;;;2.09;53.77
39789;BME280;25478;42.626;23.320;2023-02-02T05:18:14;93071.97;;;2.06;53.92
39789;BME280;25478;42.626;23.320;2023-02-02T05:20:39;93062.00;;;2.08;53.80
39789;BME280;25478;42.626;23.320;2023-02-02T05:23:05;93071.63;;;2.08;53.56
39789;BME280;25478;42.626;23.320;2023-02-02T05:25:30;93067.84;;;2.05;53.60
39789;BME280;25478;42.626;23.320;2023-02-02T05:27:56;93054.53;;;2.07;53.77
39789;BME280;25478;42.626;23.320;2023-02-02T05:30:21;93052.69;;;2.07;53.56
39789;BME280;25478;42.626;23.320;2023-02-02T05:32:46;93042.22;;;2.04;53.62
39789;BME280;25478;42.626;23.320;2023-02-02T05:35:12;93041.44;;;2.03;53.47
39789;BME280;25478;42.626;23.320;2023-02-02T05:37:37;93051.50;;;2.05;53.73
39789;BME280;25478;42.626;23.320;2023-02-02T05:40:03;93057.78;;;2.04;53.89
39789;BME280;25478;42.626;23.320;2023-02-02T05:42:29;93060.16;;;2.09;54.03
39789;BME280;25478;42.626;23.320;2023-02-02T05:44:54;93063.84;;;2.08;54.21
39789;BME280;25478;42.626;23.320;2023-02-02T05:47:20;93057.78;;;2.04;54.66
39789;BME280;25478;42.626;23.320;2023-02-02T05:49:46;93062.22;;;2.03;54.44
39789;BME280;25478;42.626;23.320;2023-02-02T05:52:17;93073.16;;;2.09;54.29
39789;BME280;25478;42.626;23.320;2023-02-02T05:54:44;93065.25;;;2.05;54.28
39789;BME280;25478;42.626;23.320;2023-02-02T05:57:09;93072.84;;;2.10;54.09
39789;BME280;25478;42.626;23.320;2023-02-02T05:59:35;93059.66;;;2.15;53.36
39789;BME280;25478;42.626;23.320;2023-02-02T06:02:00;93061.28;;;2.20;53.00
39789;BME280;25478;42.626;23.320;2023-02-02T06:04:26;93067.25;;;2.20;53.23
39789;BME280;25478;42.626;23.320;2023-02-02T06:06:51;93074.06;;;2.25;53.07
39789;BME280;25478;42.626;23.320;2023-02-02T06:09:17;93042.66;;;2.18;53.01
39789;BME280;25478;42.626;23.320;2023-02-02T06:11:43;93080.38;;;2.36;53.09
39789;BME280;25478;42.626;23.320;2023-02-02T06:14:09;93074.88;;;2.38;52.72
39789;BME280;25478;42.626;23.320;2023-02-02T06:16:34;93084.06;;;2.47;52.19
39789;BME280;25478;42.626;23.320;2023-02-02T06:19:00;93063.19;;;2.44;52.12
39789;BME280;25478;42.626;23.320;2023-02-02T06:21:26;93085.72;;;2.64;51.82
39789;BME280;25478;42.626;23.320;2023-02-02T06:23:56;93100.03;;;2.70;51.86
39789;BME280;25478;42.626;23.320;2023-02-02T06:26:21;93110.22;;;2.75;52.07
39789;BME280;25478;42.626;23.320;2023-02-02T06:28:49;93106.31;;;2.81;52.33
39789;BME280;25478;42.626;23.320;2023-02-02T06:31:14;93115.31;;;2.84;52.48
39789;BME280;25478;42.626;23.320;2023-02-02T06:33:47;93108.81;;;2.90;52.00
39789;BME280;25478;42.626;23.320;2023-02-02T06:36:16;93118.91;;;2.92;52.06
39789;BME280;25478;42.626;23.320;2023-02-02T06:38:42;93091.06;;;2.80;52.73
39789;BME280;25478;42.626;23.320;2023-02-02T06:41:07;93116.28;;;2.92;52.81
39789;BME280;25478;42.626;23.320;2023-02-02T06:43:32;93116.19;;;3.00;52.55
39789;BME280;25478;42.626;23.320;2023-02-02T06:45:58;93136.78;;;3.05;52.58
39789;BME280;25478;42.626;23.320;2023-02-02T06:48:25;93122.50;;;3.12;53.10
39789;BME280;25478;42.626;23.320;2023-02-02T06:50:51;93120.31;;;3.14;52.79
39789;BME280;25478;42.626;23.320;2023-02-02T06:53:17;93114.88;;;3.19;52.63
39789;BME280;25478;42.626;23.320;2023-02-02T06:55:53;93115.09;;;3.26;52.77
39789;BME280;25478;42.626;23.320;2023-02-02T06:58:19;93125.50;;;3.26;53.29
39789;BME280;25478;42.626;23.320;2023-02-02T07:00:45;93118.69;;;3.21;53.75
39789;BME280;25478;42.626;23.320;2023-02-02T07:03:11;93124.88;;;3.17;53.66
39789;BME280;25478;42.626;23.320;2023-02-02T07:05:36;93107.09;;;3.06;53.80
39789;BME280;25478;42.626;23.320;2023-02-02T07:08:02;93138.94;;;3.28;53.59
39789;BME280;25478;42.626;23.320;2023-02-02T07:10:28;93143.84;;;3.29;53.65
39789;BME280;25478;42.626;23.320;2023-02-02T07:12:53;93149.56;;;3.35;53.39
39789;BME280;25478;42.626;23.320;2023-02-02T07:15:19;93141.88;;;3.38;53.27
39789;BME280;25478;42.626;23.320;2023-02-02T07:17:44;93131.91;;;3.41;53.05
39789;BME280;25478;42.626;23.320;2023-02-02T07:20:10;93137.75;;;3.50;52.89
39789;BME280;25478;42.626;23.320;2023-02-02T07:22:39;93143.06;;;3.53;52.82
39789;BME280;25478;42.626;23.320;2023-02-02T07:25:06;93142.84;;;3.58;52.63
39789;BME280;25478;42.626;23.320;2023-02-02T07:27:32;93144.78;;;3.61;51.97
39789;BME280;25478;42.626;23.320;2023-02-02T07:29:58;93149.00;;;3.66;51.62
39789;BME280;25478;42.626;23.320;2023-02-02T07:32:23;93141.53;;;3.64;51.79
39789;BME280;25478;42.626;23.320;2023-02-02T07:34:49;93152.16;;;3.59;51.67
39789;BME280;25478;42.626;23.320;2023-02-02T07:37:15;93145.22;;;3.63;52.17
39789;BME280;25478;42.626;23.320;2023-02-02T07:39:40;93155.41;;;3.68;52.06
39789;BME280;25478;42.626;23.320;2023-02-02T07:42:11;93139.88;;;3.72;52.28
39789;BME280;25478;42.626;23.320;2023-02-02T07:44:38;93141.63;;;3.80;52.42
39789;BME280;25478;42.626;23.320;2023-02-02T07:47:04;93141.47;;;3.89;52.36
39789;BME280;25478;42.626;23.320;2023-02-02T07:49:30;93117.50;;;3.83;51.82
39789;BME280;25478;42.626;23.320;2023-02-02T07:51:55;93136.13;;;3.98;51.81
39789;BME280;25478;42.626;23.320;2023-02-02T07:54:21;93122.88;;;4.03;51.81
39789;BME280;25478;42.626;23.320;2023-02-02T07:56:46;93119.69;;;4.09;51.78
39789;BME280;25478;42.626;23.320;2023-02-02T07:59:12;93109.69;;;4.11;52.13
39789;BME280;25478;42.626;23.320;2023-02-02T08:01:37;93090.06;;;4.14;51.87
39789;BME280;25478;42.626;23.320;2023-02-02T08:04:03;93096.69;;;4.11;52.20
39789;BME280;25478;42.626;23.320;2023-02-02T08:06:35;93101.25;;;4.14;52.13
39789;BME280;25478;42.626;23.320;2023-02-02T08:09:03;93094.00;;;4.08;52.37
39789;BME280;25478;42.626;23.320;2023-02-02T08:11:29;93098.09;;;4.09;52.04
39789;BME280;25478;42.626;23.320;2023-02-02T08:13:57;93058.94;;;4.05;51.63
39789;BME280;25478;42.626;23.320;2023-02-02T08:16:25;93075.28;;;4.18;51.47
39789;BME280;25478;42.626;23.320;2023-02-02T08:18:51;93081.63;;;4.48;51.55
39789;BME280;25478;42.626;23.320;2023-02-02T08:21:17;93088.91;;;4.71;50.51
39789;BME280;25478;42.626;23.320;2023-02-02T08:23:44;93100.00;;;4.84;51.07
39789;BME280;25478;42.626;23.320;2023-02-02T08:26:13;93094.94;;;4.91;50.33
39789;BME280;25478;42.626;23.320;2023-02-02T08:28:40;93083.66;;;4.87;50.96
39789;BME280;25478;42.626;23.320;2023-02-02T08:31:09;93088.63;;;4.76;51.28
39789;BME280;25478;42.626;23.320;2023-02-02T08:33:35;93086.00;;;4.60;51.35
39789;BME280;25478;42.626;23.320;2023-02-02T08:36:02;93079.09;;;4.36;51.98
39789;BME280;25478;42.626;23.320;2023-02-02T08:38:28;93088.19;;;4.42;53.02
39789;BME280;25478;42.626;23.320;2023-02-02T08:40:53;93096.06;;;4.30;53.82
39789;BME280;25478;42.626;23.320;2023-02-02T08:43:19;93095.63;;;4.12;55.38
39789;BME280;25478;42.626;23.320;2023-02-02T08:45:44;93106.41;;;3.86;55.88
39789;BME280;25478;42.626;23.320;2023-02-02T08:48:10;93077.28;;;3.81;57.11
39789;BME280;25478;42.626;23.320;2023-02-02T08:50:37;93098.31;;;3.76;56.96
39789;BME280;25478;42.626;23.320;2023-02-02T08:53:02;93011.84;;;3.14;57.18
39789;BME280;25478;42.626;23.320;2023-02-02T08:55:28;93074.88;;;3.76;57.66
39789;BME280;25478;42.626;23.320;2023-02-02T08:57:53;93081.53;;;3.73;57.92
39789;BME280;25478;42.626;23.320;2023-02-02T09:00:19;93073.28;;;3.71;57.46
39789;BME280;25478;42.626;23.320;2023-02-02T09:02:49;93094.00;;;3.67;58.22
39789;BME280;25478;42.626;23.320;2023-02-02T09:05:14;93081.22;;;3.62;58.25
39789;BME280;25478;42.626;23.320;2023-02-02T09:07:40;93097.50;;;3.59;58.75
39789;BME280;25478;42.626;23.320;2023-02-02T09:10:06;93089.81;;;3.63;59.03
39789;BME280;25478;42.626;23.320;2023-02-02T09:12:31;93071.25;;;3.64;58.57
39789;BME280;25478;42.626;23.320;2023-02-02T09:14:57;93095.84;;;3.79;58.25
39789;BME280;25478;42.626;23.320;2023-02-02T09:17:22;93068.41;;;3.98;58.21
39789;BME280;25478;42.626;23.320;2023-02-02T09:19:48;93083.22;;;4.09;57.54
39789;BME280;25478;42.626;23.320;2023-02-02T09:22:14;93071.25;;;4.36;57.65
39789;BME280;25478;42.626;23.320;2023-02-02T09:24:39;93090.09;;;4.45;57.34
39789;BME280;25478;42.626;23.320;2023-02-02T09:27:05;93067.41;;;4.62;56.48
39789;BME280;25478;42.626;23.320;2023-02-02T09:29:30;93079.31;;;4.91;54.99
39789;BME280;25478;42.626;23.320;2023-02-02T09:31:56;93058.16;;;5.12;54.72
39789;BME280;25478;42.626;23.320;2023-02-02T09:34:21;93081.53;;;5.24;55.21
39789;BME280;25478;42.626;23.320;2023-02-02T09:36:47;93053.47;;;5.36;53.83
39789;BME280;25478;42.626;23.320;2023-02-02T09:39:13;93059.09;;;5.74;53.16
39789;BME280;25478;42.626;23.320;2023-02-02T09:47:16;93050.78;;;6.26;49.97
39789;BME280;25478;42.626;23.320;2023-02-02T09:52:35;93044.41;;;6.69;48.96
39789;BME280;25478;42.626;23.320;2023-02-02T09:57:52;93047.81;;;6.96;47.30
39789;BME280;25478;42.626;23.320;2023-02-02T10:00:24;93041.88;;;6.99;47.59
39789;BME280;25478;42.626;23.320;2023-02-02T10:02:57;93040.94;;;7.11;47.36
39789;BME280;25478;42.626;23.320;2023-02-02T10:05:28;93026.47;;;7.21;47.41
39789;BME280;25478;42.626;23.320;2023-02-02T10:08:00;93042.66;;;7.26;47.33
39789;BME280;25478;42.626;23.320;2023-02-02T10:10:31;93025.19;;;7.34;46.60
39789;BME280;25478;42.626;23.320;2023-02-02T10:13:10;93023.22;;;7.27;46.63
39789;BME280;25478;42.626;23.320;2023-02-02T10:15:39;93023.81;;;7.17;47.31
39789;BME280;25478;42.626;23.320;2023-02-02T10:20:58;93009.97;;;7.17;47.13
39789;BME280;25478;42.626;23.320;2023-02-02T10:23:32;93002.97;;;7.24;45.96
39789;BME280;25478;42.626;23.320;2023-02-02T10:29:04;93011.31;;;7.33;45.55
39789;BME280;25478;42.626;23.320;2023-02-02T10:39:44;92979.78;;;7.86;44.26
39789;BME280;25478;42.626;23.320;2023-02-02T10:42:22;92961.97;;;8.03;44.64
39789;BME280;25478;42.626;23.320;2023-02-02T10:44:58;92958.53;;;7.99;43.74
39789;BME280;25478;42.626;23.320;2023-02-02T10:47:31;92945.25;;;7.81;44.70
39789;BME280;25478;42.626;23.320;2023-02-02T10:52:41;92940.63;;;7.67;45.02
39789;BME280;25478;42.626;23.320;2023-02-02T11:03:13;92931.59;;;7.65;46.24
39789;BME280;25478;42.626;23.320;2023-02-02T11:05:39;92928.75;;;7.77;45.64
39789;BME280;25478;42.626;23.320;2023-02-02T11:08:35;92942.72;;;7.88;44.84
39789;BME280;25478;42.626;23.320;2023-02-02T11:11:33;92941.56;;;7.85;44.74
39789;BME280;25478;42.626;23.320;2023-02-02T11:17:17;92943.34;;;7.74;45.59
39789;BME280;25478;42.626;23.320;2023-02-02T11:19:27;92926.44;;;7.72;44.62
39789;BME280;25478;42.626;23.320;2023-02-02T11:21:59;92922.28;;;7.67;45.33
39789;BME280;25478;42.626;23.320;2023-02-02T11:24:31;92922.59;;;7.62;44.55
39789;BME280;25478;42.626;23.320;2023-02-02T11:27:02;92916.63;;;7.61;44.86
39789;BME280;25478;42.626;23.320;2023-02-02T11:29:41;92905.22;;;7.47;44.81
39789;BME280;25478;42.626;23.320;2023-02-02T11:37:29;92893.50;;;7.71;45.07
39789;BME280;25478;42.626;23.320;2023-02-02T11:40:34;92877.00;;;7.67;45.24
39789;BME280;25478;42.626;23.320;2023-02-02T11:43:04;92878.47;;;7.64;44.94
39789;BME280;25478;42.626;23.320;2023-02-02T11:45:37;92881.06;;;7.64;45.01
39789;BME280;25478;42.626;23.320;2023-02-02T11:50:40;92888.16;;;7.60;45.00
39789;BME280;25478;42.626;23.320;2023-02-02T11:53:30;92886.75;;;7.70;44.88
39789;BME280;25478;42.626;23.320;2023-02-02T11:56:16;92886.78;;;7.73;44.84
39789;BME280;25478;42.626;23.320;2023-02-02T11:58:45;92873.69;;;7.73;44.84
39789;BME280;25478;42.626;23.320;2023-02-02T12:03:51;92870.22;;;7.62;43.80
39789;BME280;25478;42.626;23.320;2023-02-02T12:06:25;92882.75;;;7.46;44.58
39789;BME280;25478;42.626;23.320;2023-02-02T12:08:57;92875.91;;;7.34;44.76
39789;BME280;25478;42.626;23.320;2023-02-02T12:14:41;92873.78;;;7.13;44.93
39789;BME280;25478;42.626;23.320;2023-02-02T12:17:39;92866.28;;;7.08;44.06
39789;BME280;25478;42.626;23.320;2023-02-02T12:20:30;92873.63;;;6.99;44.69
39789;BME280;25478;42.626;23.320;2023-02-02T12:28:53;92873.78;;;7.13;45.42
39789;BME280;25478;42.626;23.320;2023-02-02T12:45:14;92888.50;;;6.91;43.73
39789;BME280;25478;42.626;23.320;2023-02-02T12:50:40;92893.94;;;6.79;43.16
39789;BME280;25478;42.626;23.320;2023-02-02T12:53:25;92879.59;;;6.69;43.24
39789;BME280;25478;42.626;23.320;2023-02-02T12:59:01;92888.81;;;6.60;43.08
39789;BME280;25478;42.626;23.320;2023-02-02T13:01:53;92890.22;;;6.54;43.83
39789;BME280;25478;42.626;23.320;2023-02-02T13:07:23;92873.34;;;6.47;43.78
39789;BME280;25478;42.626;23.320;2023-02-02T13:12:26;92889.47;;;6.53;44.33
39789;BME280;25478;42.626;23.320;2023-02-02T13:15:06;92886.50;;;6.55;44.25
39789;BME280;25478;42.626;23.320;2023-02-02T13:17:42;92897.88;;;6.66;43.93
39789;BME280;25478;42.626;23.320;2023-02-02T13:20:39;92886.66;;;6.65;43.88
39789;BME280;25478;42.626;23.320;2023-02-02T13:23:11;92885.59;;;6.70;44.18
39789;BME280;25478;42.626;23.320;2023-02-02T13:26:05;92888.94;;;6.70;44.88
39789;BME280;25478;42.626;23.320;2023-02-02T13:28:49;92881.91;;;6.74;44.19
39789;BME280;25478;42.626;23.320;2023-02-02T13:31:48;92872.16;;;6.71;44.72
39789;BME280;25478;42.626;23.320;2023-02-02T13:34:22;92894.53;;;6.69;44.28
39789;BME280;25478;42.626;23.320;2023-02-02T13:36:56;92878.50;;;6.70;44.34
39789;BME280;25478;42.626;23.320;2023-02-02T13:39:32;92874.72;;;6.68;44.51
39789;BME280;25478;42.626;23.320;2023-02-02T13:42:00;92879.47;;;6.59;44.45
39789;BME280;25478;42.626;23.320;2023-02-02T13:44:33;92877.09;;;6.50;44.90
39789;BME280;25478;42.626;23.320;2023-02-02T13:47:05;92878.50;;;6.44;45.19
39789;BME280;25478;42.626;23.320;2023-02-02T13:49:59;92887.22;;;6.29;45.08
39789;BME280;25478;42.626;23.320;2023-02-02T14:00:42;92873.25;;;6.17;46.94
39789;BME280;25478;42.626;23.320;2023-02-02T14:05:43;92845.22;;;6.14;47.99
39789;BME280;25478;42.626;23.320;2023-02-02T14:08:18;92880.50;;;6.28;48.64
39789;BME280;25478;42.626;23.320;2023-02-02T14:13:21;92874.16;;;6.29;49.87
39789;BME280;25478;42.626;23.320;2023-02-02T14:45:38;92924.19;;;5.43;53.96
39789;BME280;25478;42.626;23.320;2023-02-02T14:48:24;92934.78;;;5.30;57.06
39789;BME280;25478;42.626;23.320;2023-02-02T14:50:56;92951.06;;;4.89;62.25
39789;BME280;25478;42.626;23.320;2023-02-02T14:53:26;92951.81;;;4.54;65.38
39789;BME280;25478;42.626;23.320;2023-02-02T14:56:11;92985.19;;;4.33;69.50
39789;BME280;25478;42.626;23.320;2023-02-02T14:58:42;92983.56;;;3.68;76.13
39789;BME280;25478;42.626;23.320;2023-02-02T15:03:45;93024.66;;;2.95;84.09
39789;BME280;25478;42.626;23.320;2023-02-02T15:16:56;93066.09;;;1.34;92.22
39789;BME280;25478;42.626;23.320;2023-02-02T15:19:34;93086.69;;;1.19;93.65
39789;BME280;25478;42.626;23.320;2023-02-02T15:25:05;93114.22;;;1.02;95.34
39789;BME280;25478;42.626;23.320;2023-02-02T15:27:37;93125.22;;;0.91;96.44
39789;BME280;25478;42.626;23.320;2023-02-02T15:30:06;93112.47;;;0.86;97.75
39789;BME280;25478;42.626;23.320;2023-02-02T15:32:34;93116.28;;;0.79;98.35
39789;BME280;25478;42.626;23.320;2023-02-02T15:35:02;93105.00;;;0.75;99.38
39789;BME280;25478;42.626;23.320;2023-02-02T15:37:33;93111.75;;;0.76;100.00
39789;BME280;25478;42.626;23.320;2023-02-02T15:40:10;93131.56;;;0.72;100.00
39789;BME280;25478;42.626;23.320;2023-02-02T15:42:43;93117.75;;;0.60;100.00
39789;BME280;25478;42.626;23.320;2023-02-02T15:45:32;93119.56;;;0.50;100.00
39789;BME280;25478;42.626;23.320;2023-02-02T15:50:46;93120.97;;;0.48;100.00
39789;BME280;25478;42.626;23.320;2023-02-02T15:53:21;93122.66;;;0.44;100.00
39789;BME280;25478;42.626;23.320;2023-02-02T15:55:47;93120.50;;;0.46;100.00
39789;BME280;25478;42.626;23.320;2023-02-02T15:58:28;93116.72;;;0.43;100.00
39789;BME280;25478;42.626;23.320;2023-02-02T16:00:59;93127.69;;;0.40;100.00
39789;BME280;25478;42.626;23.320;2023-02-02T16:03:30;93134.84;;;0.43;100.00